Time;durP1;ratioP1;P1;durP2;ratioP2;P2;SDS_P1;SDS_P2;PMS_P1;PMS_P2;Temp;Humidity;BMP_temperature;BMP_pressure;BME280_temperature;BME280_humidity;BME280_pressure;Samples;Min_cycle;Max_cycle;Signal;HPM_P1;HPM_P2
2022/04/04 00:00:45;;;;;;;6.70;3.80;;;3.30;85.60;;;;;;4863674;29;20194;-93
2022/04/04 00:03:11;;;;;;;7.00;3.90;;;3.30;85.80;;;;;;4863036;29;20193;-92
2022/04/04 00:05:38;;;;;;;13.10;3.70;;;3.30;85.70;;;;;;4863247;29;20169;-93
2022/04/04 00:08:05;;;;;;;11.57;4.20;;;3.30;85.70;;;;;;4865300;29;20197;-93
2022/04/04 00:10:31;;;;;;;6.37;3.43;;;3.30;85.90;;;;;;4864310;29;20265;-93
2022/04/04 00:41:24;;;;;;;14.67;5.97;;;3.30;86.10;;;;;;4864341;29;20237;-90
2022/04/04 00:43:51;;;;;;;11.97;4.17;;;3.40;86.30;;;;;;4853030;29;20262;-90
2022/04/04 00:46:17;;;;;;;7.83;4.10;;;3.30;86.30;;;;;;4847928;29;20199;-92
2022/04/04 00:48:42;;;;;;;8.93;4.20;;;3.30;86.30;;;;;;4836199;29;20188;-92
2022/04/04 00:51:08;;;;;;;7.77;3.40;;;3.30;86.50;;;;;;4831148;29;20209;-92
2022/04/04 00:53:35;;;;;;;6.73;3.63;;;3.20;86.70;;;;;;4831054;29;20276;-92
2022/04/04 00:56:01;;;;;;;5.17;3.37;;;3.20;86.70;;;;;;4829285;29;20257;-92
2022/04/04 00:58:32;;;;;;;8.13;3.20;;;3.20;86.80;;;;;;4843654;29;20179;-92
2022/04/04 01:00:58;;;;;;;7.10;3.50;;;3.20;86.80;;;;;;4848792;29;20195;-92
2022/04/04 01:03:25;;;;;;;6.03;3.00;;;3.20;86.90;;;;;;4845578;29;20189;-92
2022/04/04 01:05:50;;;;;;;9.50;3.80;;;3.20;86.90;;;;;;4848152;29;20197;-93
2022/04/04 01:08:16;;;;;;;6.80;3.77;;;3.10;86.90;;;;;;4850358;29;20237;-92
2022/04/04 01:10:43;;;;;;;8.23;4.37;;;3.10;87.00;;;;;;4849198;29;20176;-92
2022/04/04 01:13:10;;;;;;;2.83;2.50;;;3.20;87.00;;;;;;4846451;29;20210;-92
2022/04/04 01:15:36;;;;;;;9.13;3.33;;;3.10;87.00;;;;;;4847936;29;20238;-92
2022/04/04 01:18:08;;;;;;;7.93;3.80;;;3.10;87.00;;;;;;4849478;29;20214;-93
2022/04/04 01:20:37;;;;;;;3.73;3.13;;;3.10;87.00;;;;;;4849384;29;20166;-93
2022/04/04 01:23:04;;;;;;;4.90;3.53;;;3.00;87.10;;;;;;4848712;29;20183;-92
2022/04/04 01:25:32;;;;;;;4.80;3.60;;;3.10;87.10;;;;;;4848964;29;20193;-92
2022/04/04 01:27:59;;;;;;;5.43;3.37;;;3.10;87.10;;;;;;4848068;29;20301;-93
2022/04/04 01:30:26;;;;;;;4.83;3.13;;;3.10;87.10;;;;;;4850592;29;20181;-94
2022/04/04 01:32:52;;;;;;;9.73;3.90;;;3.00;87.20;;;;;;4850361;29;20211;-92
2022/04/04 01:35:19;;;;;;;3.13;2.77;;;3.00;87.40;;;;;;4850637;29;20203;-92
2022/04/04 01:37:46;;;;;;;6.37;3.67;;;3.00;87.30;;;;;;4852708;29;20225;-92
2022/04/04 01:40:14;;;;;;;6.97;4.33;;;3.00;87.20;;;;;;4853383;29;20206;-92
2022/04/04 01:42:40;;;;;;;10.53;4.23;;;2.90;87.40;;;;;;4853358;29;20178;-92
2022/04/04 01:45:09;;;;;;;7.83;3.87;;;2.90;87.40;;;;;;4840379;29;20245;-91
2022/04/04 01:47:35;;;;;;;7.43;3.13;;;2.90;87.50;;;;;;4853094;29;20210;-92
2022/04/04 01:50:02;;;;;;;8.90;4.07;;;2.90;87.60;;;;;;4851300;29;20175;-93
2022/04/04 01:52:28;;;;;;;4.80;3.97;;;2.90;87.50;;;;;;4852697;29;20178;-92
2022/04/04 01:54:54;;;;;;;9.80;4.53;;;2.90;87.50;;;;;;4852904;29;20202;-94
2022/04/04 01:57:19;;;;;;;6.07;4.07;;;2.90;87.50;;;;;;4853337;29;20207;-93
2022/04/04 01:59:45;;;;;;;2.30;2.10;;;2.90;87.60;;;;;;4852179;29;20170;-93
2022/04/04 02:02:11;;;;;;;12.77;4.70;;;2.90;87.50;;;;;;4853296;29;20205;-93
2022/04/04 02:04:36;;;;;;;7.43;4.10;;;2.90;87.70;;;;;;4850890;29;20184;-92
2022/04/04 02:07:05;;;;;;;4.07;3.27;;;2.90;87.70;;;;;;4851183;29;20198;-94
2022/04/04 02:09:31;;;;;;;7.93;3.20;;;2.90;87.60;;;;;;4851287;29;20248;-93
2022/04/04 02:11:57;;;;;;;6.90;3.57;;;2.90;87.50;;;;;;4851177;29;20185;-93
2022/04/04 02:14:23;;;;;;;4.60;3.50;;;2.90;87.60;;;;;;4852365;29;20234;-93
2022/04/04 02:16:48;;;;;;;7.97;3.97;;;2.90;87.70;;;;;;4851221;29;20212;-92
2022/04/04 02:19:16;;;;;;;8.37;3.30;;;2.90;87.50;;;;;;4852071;29;20194;-92
2022/04/04 02:21:41;;;;;;;7.57;4.20;;;2.90;87.70;;;;;;4851444;29;20251;-92
2022/04/04 02:24:07;;;;;;;9.17;4.73;;;2.80;87.70;;;;;;4851238;29;20175;-93
2022/04/04 02:26:33;;;;;;;8.87;3.37;;;2.90;87.50;;;;;;4850907;29;20209;-92
2022/04/04 02:28:58;;;;;;;7.87;4.50;;;2.90;87.50;;;;;;4852194;29;20259;-93
2022/04/04 02:31:24;;;;;;;7.17;4.20;;;2.90;87.60;;;;;;4850033;29;20183;-92
2022/04/04 02:33:50;;;;;;;3.20;2.90;;;3.00;87.40;;;;;;4850806;29;20303;-93
2022/04/04 02:36:16;;;;;;;6.43;4.33;;;3.00;87.30;;;;;;4849861;29;20209;-93
2022/04/04 02:38:41;;;;;;;3.97;2.40;;;3.00;87.30;;;;;;4848819;29;20241;-92
2022/04/04 02:41:08;;;;;;;4.57;4.17;;;3.00;87.00;;;;;;4850625;29;20207;-93
2022/04/04 02:43:33;;;;;;;7.30;4.70;;;3.10;86.70;;;;;;4851721;29;20189;-93
2022/04/04 02:45:59;;;;;;;7.53;4.20;;;3.10;86.60;;;;;;4850994;29;20213;-92
2022/04/04 02:48:24;;;;;;;8.27;4.23;;;3.10;86.40;;;;;;4851581;29;20193;-92
2022/04/04 02:50:51;;;;;;;7.40;3.60;;;3.10;86.50;;;;;;4850828;29;20198;-93
2022/04/04 02:53:17;;;;;;;5.30;3.47;;;3.10;86.30;;;;;;4851170;29;20227;-93
2022/04/04 02:58:27;;;;;;;7.07;4.17;;;3.20;85.90;;;;;;4867311;29;20229;-92
2022/04/04 03:00:53;;;;;;;6.90;3.83;;;3.20;85.80;;;;;;4850569;29;20190;-92
2022/04/04 03:03:19;;;;;;;3.43;2.87;;;3.10;85.90;;;;;;4850036;29;20184;-93
2022/04/04 03:05:45;;;;;;;9.87;4.57;;;3.10;85.80;;;;;;4852012;29;20181;-93
2022/04/04 03:08:10;;;;;;;5.10;2.80;;;3.10;86.20;;;;;;4851308;29;20234;-93
2022/04/04 03:10:36;;;;;;;5.00;3.50;;;3.10;86.10;;;;;;4851551;29;20208;-92
2022/04/04 03:13:05;;;;;;;2.60;2.40;;;3.10;85.80;;;;;;4852501;29;20272;-93
2022/04/04 03:15:31;;;;;;;5.00;3.43;;;3.00;85.80;;;;;;4852569;29;20209;-93
2022/04/04 03:17:57;;;;;;;4.27;3.20;;;3.00;85.80;;;;;;4852029;29;20209;-92
2022/04/04 03:20:25;;;;;;;4.03;3.10;;;3.00;85.70;;;;;;4852023;29;20262;-92
2022/04/04 03:22:54;;;;;;;5.47;3.93;;;3.00;85.50;;;;;;4852084;29;20184;-93
2022/04/04 03:25:20;;;;;;;3.03;2.83;;;3.00;85.40;;;;;;4851695;29;20155;-93
2022/04/04 03:27:46;;;;;;;3.13;2.83;;;3.10;85.40;;;;;;4850283;29;20197;-93
2022/04/04 03:30:32;;;;;;;4.57;3.47;;;3.10;85.10;;;;;;4851941;29;20170;-93
2022/04/04 03:32:58;;;;;;;8.07;4.03;;;3.00;85.20;;;;;;4851542;29;20217;-93
2022/04/04 03:35:26;;;;;;;6.07;2.90;;;3.10;85.30;;;;;;4851543;29;20184;-93
2022/04/04 03:37:53;;;;;;;5.17;3.47;;;3.00;85.00;;;;;;4849713;29;20199;-93
2022/04/04 03:40:20;;;;;;;6.03;3.33;;;3.10;84.60;;;;;;4849259;29;20193;-93
2022/04/04 03:42:50;;;;;;;3.70;2.63;;;3.10;84.60;;;;;;4849712;29;20169;-93
2022/04/04 03:45:16;;;;;;;5.50;3.47;;;3.10;84.40;;;;;;4850662;29;20166;-92
2022/04/04 03:47:42;;;;;;;2.50;2.30;;;3.10;84.50;;;;;;4850787;29;20188;-92
2022/04/04 03:50:12;;;;;;;4.27;3.07;;;3.10;84.50;;;;;;4851929;29;20216;-93
2022/04/04 03:52:38;;;;;;;8.47;3.70;;;3.10;84.40;;;;;;4851348;29;20153;-93
2022/04/04 03:55:04;;;;;;;4.20;3.23;;;3.10;84.20;;;;;;4850491;29;20184;-92
2022/04/04 03:57:30;;;;;;;6.27;3.37;;;3.20;83.70;;;;;;4886836;23;20228;-89
2022/04/04 03:59:56;;;;;;;4.60;3.47;;;3.20;83.60;;;;;;4878954;29;20182;-89
2022/04/04 04:02:21;;;;;;;4.43;3.60;;;3.20;83.60;;;;;;4879029;29;20184;-89
2022/04/04 04:04:47;;;;;;;3.43;2.83;;;3.20;83.60;;;;;;4878824;29;20192;-89
2022/04/04 04:07:16;;;;;;;4.93;3.53;;;3.30;83.10;;;;;;4878825;29;20208;-89
2022/04/04 04:09:42;;;;;;;4.20;3.63;;;3.30;82.90;;;;;;4878711;29;20267;-89
2022/04/04 04:12:10;;;;;;;7.60;3.27;;;3.30;82.90;;;;;;4879188;29;20181;-89
2022/04/04 04:14:37;;;;;;;4.87;3.40;;;3.30;82.60;;;;;;4878773;29;20259;-88
2022/04/04 04:17:02;;;;;;;5.07;3.87;;;3.30;82.60;;;;;;4878655;29;20687;-89
2022/04/04 04:22:13;;;;;;;3.20;2.60;;;3.30;82.80;;;;;;4880079;29;20653;-89
2022/04/04 04:24:39;;;;;;;4.47;3.90;;;3.40;82.10;;;;;;4878687;29;20192;-88
2022/04/04 04:27:05;;;;;;;5.03;4.30;;;3.40;81.70;;;;;;4878521;29;20585;-88
2022/04/04 04:29:30;;;;;;;5.20;3.10;;;3.40;81.60;;;;;;4879669;29;20190;-88
2022/04/04 04:31:56;;;;;;;3.30;3.03;;;3.30;81.70;;;;;;4878437;29;20186;-88
2022/04/04 04:34:21;;;;;;;3.80;3.10;;;3.40;81.70;;;;;;4879133;29;20236;-89
2022/04/04 04:36:47;;;;;;;3.43;3.10;;;3.40;81.50;;;;;;4878311;29;20295;-88
2022/04/04 04:39:12;;;;;;;4.30;3.20;;;3.40;81.50;;;;;;4879282;29;20276;-89
2022/04/04 04:41:38;;;;;;;3.87;3.33;;;3.40;82.00;;;;;;4878385;29;20276;-89
2022/04/04 04:44:05;;;;;;;4.20;3.57;;;3.40;81.70;;;;;;4878645;29;20194;-89
2022/04/04 04:46:31;;;;;;;7.33;3.50;;;3.40;81.90;;;;;;4878249;29;20268;-89
2022/04/04 04:48:57;;;;;;;10.47;3.97;;;3.30;82.30;;;;;;4878347;29;20193;-89
2022/04/04 04:51:23;;;;;;;8.10;4.77;;;3.40;82.00;;;;;;4878660;29;20188;-89
2022/04/04 04:53:48;;;;;;;6.27;4.50;;;3.40;82.30;;;;;;4878289;29;20349;-89
2022/04/04 04:56:14;;;;;;;7.40;4.07;;;3.40;82.00;;;;;;4878135;29;20188;-89
2022/04/04 04:58:40;;;;;;;7.33;3.93;;;3.50;82.30;;;;;;4878345;29;20190;-88
2022/04/04 05:01:05;;;;;;;6.50;4.20;;;3.60;82.10;;;;;;4879597;29;20190;-89
2022/04/04 05:03:31;;;;;;;5.20;4.70;;;3.60;82.00;;;;;;4878138;29;20188;-89
2022/04/04 05:05:57;;;;;;;7.03;5.03;;;3.60;82.10;;;;;;4878242;29;20186;-89
2022/04/04 05:08:23;;;;;;;7.10;5.17;;;3.60;82.40;;;;;;4878727;29;20219;-89
2022/04/04 05:10:48;;;;;;;7.90;6.23;;;3.60;82.20;;;;;;4881971;29;20194;-89
2022/04/04 05:13:14;;;;;;;8.30;5.80;;;3.70;82.20;;;;;;4881861;29;20208;-89
2022/04/04 05:15:40;;;;;;;6.77;5.67;;;3.70;82.10;;;;;;4881837;29;20559;-89
2022/04/04 05:18:06;;;;;;;4.50;3.93;;;3.70;82.00;;;;;;4882872;29;20677;-89
2022/04/04 05:20:31;;;;;;;9.07;6.37;;;3.70;82.20;;;;;;4881754;29;20188;-89
2022/04/04 05:22:57;;;;;;;7.80;6.33;;;3.80;82.10;;;;;;4881751;29;20185;-89
2022/04/04 05:25:23;;;;;;;7.30;5.93;;;3.80;82.60;;;;;;4883099;29;20186;-89
2022/04/04 05:27:50;;;;;;;10.23;6.23;;;3.80;82.90;;;;;;4881644;29;20208;-89
2022/04/04 05:30:17;;;;;;;8.23;7.33;;;3.80;83.00;;;;;;4882804;29;20713;-89
2022/04/04 05:32:43;;;;;;;8.70;6.30;;;3.80;83.70;;;;;;4881559;29;20205;-89
2022/04/04 05:35:11;;;;;;;9.00;6.60;;;3.90;83.40;;;;;;4881484;29;20273;-89
2022/04/04 05:37:36;;;;;;;10.63;7.33;;;3.80;84.10;;;;;;4882612;29;20278;-89
2022/04/04 05:40:03;;;;;;;7.23;6.43;;;3.80;84.20;;;;;;4882254;29;20214;-89
2022/04/04 05:42:30;;;;;;;12.93;8.90;;;3.80;84.80;;;;;;4881364;29;20188;-89
2022/04/04 05:44:56;;;;;;;11.03;7.30;;;3.80;84.70;;;;;;4882530;29;20555;-89
2022/04/04 05:47:21;;;;;;;11.33;7.93;;;3.70;85.30;;;;;;4881238;29;20205;-89
2022/04/04 05:49:48;;;;;;;11.43;6.80;;;3.80;85.30;;;;;;4881407;29;20677;-89
2022/04/04 05:52:15;;;;;;;9.63;8.20;;;3.80;85.60;;;;;;4881210;29;20189;-89
2022/04/04 05:54:53;;;;;;;12.63;8.10;;;3.80;85.60;;;;;;4881594;29;20198;-89
2022/04/04 05:57:21;;;;;;;11.93;9.47;;;3.80;86.20;;;;;;4881061;29;20220;-89
2022/04/04 05:59:46;;;;;;;9.60;6.47;;;3.70;86.80;;;;;;4881225;29;20181;-89
2022/04/04 06:02:13;;;;;;;11.13;8.90;;;3.70;86.70;;;;;;4881061;29;20182;-89
2022/04/04 06:04:38;;;;;;;23.53;14.63;;;3.70;87.10;;;;;;4881060;29;20189;-89
2022/04/04 06:07:04;;;;;;;14.87;8.03;;;3.80;87.10;;;;;;4880895;29;20703;-88
2022/04/04 06:09:31;;;;;;;17.43;11.80;;;3.80;87.20;;;;;;4885445;29;20188;-94
2022/04/04 06:11:56;;;;;;;11.83;9.33;;;3.80;87.10;;;;;;4890715;29;20194;-89
2022/04/04 06:14:22;;;;;;;15.60;12.53;;;3.70;87.30;;;;;;4881107;29;20706;-89
2022/04/04 06:16:47;;;;;;;14.63;10.17;;;3.70;87.50;;;;;;4880772;29;20213;-88
2022/04/04 06:19:13;;;;;;;12.60;10.20;;;3.80;87.80;;;;;;4880906;29;20229;-88
2022/04/04 06:21:39;;;;;;;25.57;14.03;;;3.80;87.90;;;;;;4880037;29;20241;-89
2022/04/04 06:24:05;;;;;;;19.57;9.93;;;3.80;87.70;;;;;;4880763;29;20614;-88
2022/04/04 06:26:31;;;;;;;14.97;10.73;;;3.80;87.90;;;;;;4882169;29;20206;-88
2022/04/04 06:28:56;;;;;;;15.00;11.50;;;3.80;87.90;;;;;;4882087;29;20209;-87
2022/04/04 06:31:22;;;;;;;21.33;13.33;;;3.80;88.30;;;;;;4880543;29;20241;-88
2022/04/04 06:33:48;;;;;;;16.70;11.37;;;3.80;88.50;;;;;;4881633;29;20634;-88
2022/04/04 06:36:13;;;;;;;18.67;13.10;;;3.70;88.00;;;;;;4880411;29;20182;-88
2022/04/04 06:38:39;;;;;;;18.33;12.37;;;3.80;88.40;;;;;;4880472;29;20174;-88
2022/04/04 06:41:05;;;;;;;14.97;10.00;;;3.80;88.60;;;;;;4880569;29;20217;-89
2022/04/04 06:43:30;;;;;;;16.47;12.47;;;3.80;88.40;;;;;;4880520;29;20194;-89
2022/04/04 06:45:56;;;;;;;17.47;11.83;;;3.80;88.80;;;;;;4880377;29;20182;-89
2022/04/04 06:48:23;;;;;;;17.00;12.13;;;3.70;88.50;;;;;;4881315;29;20198;-88
2022/04/04 06:50:49;;;;;;;16.53;11.17;;;3.70;88.60;;;;;;4881364;29;20666;-89
2022/04/04 06:53:15;;;;;;;18.23;12.10;;;3.60;88.60;;;;;;4880136;29;20206;-89
2022/04/04 06:55:42;;;;;;;17.40;12.23;;;3.60;88.80;;;;;;4880084;29;20551;-89
2022/04/04 06:58:07;;;;;;;17.33;12.50;;;3.60;88.90;;;;;;4880939;29;20292;-90
2022/04/04 07:00:35;;;;;;;16.33;11.03;;;3.50;89.20;;;;;;4879924;29;20612;-89
2022/04/04 07:03:01;;;;;;;17.97;13.40;;;3.50;89.30;;;;;;4880009;29;20570;-90
2022/04/04 07:05:27;;;;;;;18.37;13.63;;;3.50;89.20;;;;;;4879928;29;20183;-89
2022/04/04 07:07:53;;;;;;;19.57;14.37;;;3.40;89.30;;;;;;4879861;29;20550;-89
2022/04/04 07:10:19;;;;;;;16.93;12.67;;;3.40;89.40;;;;;;4879839;29;20185;-90
2022/04/04 07:12:45;;;;;;;18.67;13.30;;;3.40;89.50;;;;;;4880644;29;20303;-89
2022/04/04 07:15:11;;;;;;;23.70;14.30;;;3.30;89.50;;;;;;4879870;29;20205;-89
2022/04/04 07:17:42;;;;;;;18.20;12.97;;;3.30;89.40;;;;;;4879772;29;20336;-89
2022/04/04 07:20:08;;;;;;;22.63;15.67;;;3.30;89.70;;;;;;4880667;29;20248;-89
2022/04/04 07:22:39;;;;;;;17.43;13.73;;;3.30;89.80;;;;;;4879680;29;20573;-89
2022/04/04 07:25:07;;;;;;;21.13;13.90;;;3.30;89.80;;;;;;4879717;29;20166;-90
2022/04/04 07:27:34;;;;;;;21.63;15.30;;;3.30;89.50;;;;;;4880718;29;20215;-90
2022/04/04 07:29:59;;;;;;;18.17;13.13;;;3.30;89.60;;;;;;4879836;29;20584;-90
2022/04/04 07:32:25;;;;;;;21.83;14.60;;;3.30;89.90;;;;;;4878527;29;20228;-90
2022/04/04 07:34:51;;;;;;;17.97;12.97;;;3.30;89.60;;;;;;4879736;29;20230;-91
2022/04/04 07:37:17;;;;;;;18.20;15.10;;;3.30;89.80;;;;;;4882234;29;20712;-90
2022/04/04 07:39:42;;;;;;;20.13;14.53;;;3.30;90.00;;;;;;4879511;29;20189;-91
2022/04/04 07:42:08;;;;;;;18.50;12.53;;;3.30;90.00;;;;;;4883612;29;20697;-93
2022/04/04 07:44:34;;;;;;;15.97;12.80;;;3.30;90.00;;;;;;4884408;29;20252;-93
2022/04/04 07:47:00;;;;;;;17.00;14.93;;;3.30;89.80;;;;;;4883558;29;20205;-93
2022/04/04 07:49:26;;;;;;;19.17;12.23;;;3.40;89.70;;;;;;4884501;29;20290;-93
2022/04/04 07:51:52;;;;;;;19.73;15.17;;;3.30;89.70;;;;;;4882678;29;20188;-93
2022/04/04 07:54:18;;;;;;;17.80;13.80;;;3.40;89.60;;;;;;4883789;29;20717;-93
2022/04/04 07:56:43;;;;;;;15.60;12.87;;;3.40;89.70;;;;;;4884364;29;20234;-91
2022/04/04 07:59:09;;;;;;;15.03;13.27;;;3.40;89.30;;;;;;4879592;29;20636;-91
2022/04/04 08:01:35;;;;;;;15.80;13.43;;;3.40;89.80;;;;;;4879887;29;20203;-91
2022/04/04 08:04:01;;;;;;;14.47;12.90;;;3.50;89.40;;;;;;4879687;29;20538;-91
2022/04/04 08:06:26;;;;;;;23.07;14.67;;;3.50;89.70;;;;;;4879575;29;20293;-91
2022/04/04 08:08:52;;;;;;;17.50;14.77;;;3.50;89.80;;;;;;4879119;29;20196;-91
2022/04/04 08:11:17;;;;;;;14.17;11.17;;;3.50;89.80;;;;;;4880098;29;20181;-91
2022/04/04 08:13:44;;;;;;;21.53;15.77;;;3.50;89.60;;;;;;4879940;29;20190;-91
2022/04/04 08:16:10;;;;;;;18.00;13.20;;;3.50;89.40;;;;;;4880945;29;20189;-92
2022/04/04 08:18:35;;;;;;;21.23;12.97;;;3.60;89.30;;;;;;4880295;29;20245;-91
2022/04/04 08:21:01;;;;;;;18.57;13.13;;;3.70;89.50;;;;;;4886000;29;20179;-92
2022/04/04 08:23:31;;;;;;;19.13;14.17;;;3.70;89.20;;;;;;4886349;29;20605;-91
2022/04/04 08:25:59;;;;;;;15.37;13.77;;;3.70;89.10;;;;;;4879283;29;20273;-90
2022/04/04 08:28:25;;;;;;;13.50;11.33;;;3.70;89.40;;;;;;4879407;29;20206;-92
2022/04/04 08:30:51;;;;;;;13.00;11.57;;;3.70;89.20;;;;;;4879854;29;20186;-91
2022/04/04 08:33:18;;;;;;;16.17;12.90;;;3.70;89.10;;;;;;4884222;29;20186;-92
2022/04/04 08:35:45;;;;;;;15.27;13.40;;;3.70;88.90;;;;;;4881708;29;20197;-91
2022/04/04 08:38:11;;;;;;;18.10;12.07;;;3.80;89.30;;;;;;4881327;29;20758;-92
2022/04/04 08:40:38;;;;;;;16.67;13.00;;;3.70;89.00;;;;;;4881107;29;20213;-91
2022/04/04 08:43:10;;;;;;;17.13;12.97;;;3.80;88.60;;;;;;4878928;29;20736;-92
2022/04/04 08:45:40;;;;;;;16.03;13.17;;;3.80;89.00;;;;;;4879552;29;20553;-92
2022/04/04 08:48:06;;;;;;;16.20;13.67;;;3.80;89.10;;;;;;4879513;29;20580;-91
2022/04/04 08:50:32;;;;;;;14.33;10.63;;;3.90;88.90;;;;;;4879184;29;20193;-90
2022/04/04 08:53:00;;;;;;;17.80;14.03;;;3.80;88.70;;;;;;4878390;29;20211;-90
2022/04/04 08:55:26;;;;;;;19.40;13.97;;;3.80;88.80;;;;;;4878383;29;20189;-90
2022/04/04 08:57:52;;;;;;;18.47;14.83;;;3.80;89.00;;;;;;4879541;29;20220;-90
2022/04/04 09:00:18;;;;;;;15.83;11.83;;;3.80;89.00;;;;;;4879626;29;20205;-90
2022/04/04 09:03:03;;;;;;;14.83;13.27;;;3.80;88.60;;;;;;4881390;29;20194;-92
2022/04/04 09:05:35;;;;;;;13.10;11.80;;;3.80;88.90;;;;;;4881784;29;20181;-89
2022/04/04 09:08:06;;;;;;;13.73;11.43;;;3.80;89.10;;;;;;4888781;29;20197;-91
2022/04/04 09:10:37;;;;;;;14.97;12.37;;;3.80;89.10;;;;;;4887329;29;20208;-92
2022/04/04 09:13:07;;;;;;;16.57;11.83;;;3.80;89.10;;;;;;4890462;29;20189;-91
2022/04/04 09:15:51;;;;;;;16.43;12.67;;;3.90;89.40;;;;;;4888864;29;20276;-90
2022/04/04 09:18:17;;;;;;;22.37;13.20;;;3.90;89.10;;;;;;4883090;29;20212;-91
2022/04/04 09:20:50;;;;;;;12.57;11.27;;;3.90;89.40;;;;;;4879509;29;20190;-91
2022/04/04 09:23:16;;;;;;;16.20;12.77;;;3.90;89.20;;;;;;4880050;29;20236;-91
2022/04/04 09:25:42;;;;;;;15.40;12.03;;;3.90;89.20;;;;;;4883861;29;20196;-91
2022/04/04 09:28:19;;;;;;;16.43;14.17;;;3.90;89.20;;;;;;4884770;29;20205;-91
2022/04/04 09:31:06;;;;;;;15.23;12.90;;;3.90;89.30;;;;;;4880143;29;20188;-91
2022/04/04 09:33:36;;;;;;;20.00;16.03;;;3.90;89.00;;;;;;4879591;29;20184;-90
2022/04/04 09:36:03;;;;;;;12.37;10.37;;;4.00;88.90;;;;;;4879769;29;20307;-91
2022/04/04 09:38:30;;;;;;;12.00;10.30;;;4.00;89.50;;;;;;4881096;29;20245;-90
2022/04/04 09:40:56;;;;;;;11.10;9.03;;;4.00;88.90;;;;;;4880567;29;20186;-90
2022/04/04 09:43:22;;;;;;;11.43;9.90;;;4.00;89.10;;;;;;4882386;29;20265;-90
2022/04/04 09:45:47;;;;;;;15.17;10.77;;;4.00;88.80;;;;;;4879679;29;20667;-90
2022/04/04 09:48:13;;;;;;;14.87;12.57;;;4.00;88.90;;;;;;4878481;29;20206;-90
2022/04/04 09:50:46;;;;;;;15.67;12.27;;;4.10;89.00;;;;;;4878313;29;20240;-90
2022/04/04 09:53:24;;;;;;;13.90;11.90;;;4.00;89.20;;;;;;4878639;29;20245;-90
2022/04/04 09:55:52;;;;;;;11.20;8.90;;;4.10;89.30;;;;;;4879319;29;20271;-90
2022/04/04 09:58:20;;;;;;;11.37;10.17;;;4.10;89.30;;;;;;4881205;29;20226;-90
2022/04/04 10:00:49;;;;;;;15.63;12.40;;;4.10;89.40;;;;;;4881151;29;20637;-90
2022/04/04 10:03:16;;;;;;;10.93;9.83;;;4.00;89.20;;;;;;4881182;29;20668;-89
2022/04/04 10:05:44;;;;;;;12.50;10.40;;;4.00;89.40;;;;;;4881369;29;20242;-89
2022/04/04 10:08:15;;;;;;;12.93;10.87;;;4.00;89.40;;;;;;4881676;29;20205;-91
2022/04/04 10:10:41;;;;;;;11.20;8.30;;;4.00;89.50;;;;;;4885596;29;20186;-91
2022/04/04 10:13:08;;;;;;;12.63;10.00;;;4.10;89.70;;;;;;4885604;29;20284;-92
2022/04/04 10:15:36;;;;;;;18.00;12.33;;;4.10;89.50;;;;;;4887602;29;20784;-91
2022/04/04 10:18:02;;;;;;;14.67;11.77;;;4.10;89.70;;;;;;4882430;29;20580;-91
2022/04/04 10:20:28;;;;;;;18.10;13.37;;;4.10;89.90;;;;;;4883456;29;20192;-91
2022/04/04 10:22:54;;;;;;;18.57;14.90;;;4.10;89.90;;;;;;4882917;29;20425;-91
2022/04/04 10:25:27;;;;;;;15.17;13.33;;;4.20;90.00;;;;;;4883909;29;20183;-91
2022/04/04 10:27:53;;;;;;;10.37;9.27;;;4.30;90.00;;;;;;4884572;29;20281;-91
2022/04/04 10:30:34;;;;;;;11.27;9.83;;;4.30;90.00;;;;;;4883857;29;20620;-91
2022/04/04 10:32:59;;;;;;;16.00;13.30;;;4.30;90.10;;;;;;4884915;29;20264;-91
2022/04/04 10:35:28;;;;;;;18.93;15.30;;;4.30;90.10;;;;;;4883088;29;20612;-92
2022/04/04 10:37:58;;;;;;;12.17;10.87;;;4.30;89.90;;;;;;4884628;29;20212;-91
2022/04/04 10:40:27;;;;;;;12.33;11.00;;;4.30;89.80;;;;;;4882843;29;20185;-91
2022/04/04 10:43:11;;;;;;;14.67;9.67;;;4.30;89.90;;;;;;4883099;29;20183;-91
2022/04/04 10:46:10;;;;;;;11.00;8.90;;;4.40;89.60;;;;;;4883643;29;20197;-89
2022/04/04 10:48:41;;;;;;;13.00;10.37;;;4.40;89.60;;;;;;4862979;29;20560;-90
2022/04/04 10:51:18;;;;;;;13.03;11.63;;;4.50;89.90;;;;;;4881901;29;20191;-91
2022/04/04 10:54:10;;;;;;;15.07;13.57;;;4.50;89.80;;;;;;4883747;29;20237;-91
2022/04/04 10:56:46;;;;;;;12.70;10.20;;;4.50;89.80;;;;;;4883377;29;20253;-91
2022/04/04 10:59:23;;;;;;;12.70;10.77;;;4.50;89.90;;;;;;4881000;29;20174;-91
2022/04/04 11:01:52;;;;;;;13.27;11.87;;;4.60;90.00;;;;;;4881317;29;20667;-91
2022/04/04 11:04:27;;;;;;;9.60;8.60;;;4.70;90.00;;;;;;4883915;29;20230;-91
2022/04/04 11:09:55;;;;;;;11.63;9.80;;;4.70;90.10;;;;;;4882246;29;20172;-91
2022/04/04 11:12:24;;;;;;;12.30;10.33;;;4.70;90.00;;;;;;4880888;29;20178;-90
2022/04/04 11:14:54;;;;;;;8.77;7.83;;;4.80;89.80;;;;;;4880624;29;20653;-90
2022/04/04 11:17:30;;;;;;;12.10;10.90;;;4.80;89.90;;;;;;4879965;29;20211;-91
2022/04/04 11:20:16;;;;;;;11.40;9.83;;;4.80;89.70;;;;;;4881088;29;20178;-91
2022/04/04 11:22:46;;;;;;;12.90;10.93;;;4.80;89.90;;;;;;4879891;29;20178;-90
2022/04/04 11:25:17;;;;;;;11.37;10.20;;;4.80;89.90;;;;;;4879875;29;20190;-90
2022/04/04 11:27:48;;;;;;;10.37;8.90;;;4.90;90.10;;;;;;4880866;29;20240;-90
2022/04/04 11:30:15;;;;;;;8.53;6.53;;;4.80;90.00;;;;;;4881504;29;20158;-92
2022/04/04 11:32:42;;;;;;;9.23;8.27;;;4.90;90.00;;;;;;4881106;29;20660;-92
2022/04/04 11:35:14;;;;;;;8.37;6.90;;;4.90;90.00;;;;;;4881156;29;20773;-90
2022/04/04 11:37:51;;;;;;;9.27;7.87;;;5.00;90.10;;;;;;4881898;29;20206;-90
2022/04/04 11:40:25;;;;;;;6.87;6.17;;;5.00;90.00;;;;;;4884906;29;20177;-91
2022/04/04 11:42:52;;;;;;;10.80;9.40;;;5.00;90.10;;;;;;4881287;29;20268;-91
2022/04/04 11:45:20;;;;;;;7.47;6.70;;;5.00;89.80;;;;;;4881696;29;20178;-90
2022/04/04 11:47:50;;;;;;;8.37;7.03;;;5.00;89.70;;;;;;4880593;29;20673;-90
2022/04/04 11:50:16;;;;;;;7.87;7.07;;;5.00;89.90;;;;;;4879866;29;20269;-90
2022/04/04 11:52:56;;;;;;;8.57;7.70;;;5.10;90.10;;;;;;4879985;29;20266;-90
2022/04/04 11:55:25;;;;;;;8.17;7.30;;;5.10;90.10;;;;;;4879681;29;20185;-90
2022/04/04 11:57:57;;;;;;;6.93;6.23;;;5.10;90.00;;;;;;4879541;29;20377;-90
2022/04/04 12:00:27;;;;;;;8.80;7.90;;;5.10;89.80;;;;;;4880463;29;20206;-91
2022/04/04 12:02:53;;;;;;;8.07;7.27;;;5.20;90.10;;;;;;4881888;29;20209;-92
2022/04/04 12:05:23;;;;;;;8.87;7.97;;;5.20;90.20;;;;;;4882643;29;20182;-92
2022/04/04 12:07:52;;;;;;;9.20;5.93;;;5.30;90.20;;;;;;4883407;29;20277;-90
2022/04/04 12:10:25;;;;;;;6.60;5.90;;;5.20;90.40;;;;;;4880095;29;20167;-90
2022/04/04 12:13:06;;;;;;;7.43;6.73;;;5.30;90.30;;;;;;4880047;29;20170;-89
2022/04/04 12:15:34;;;;;;;7.63;6.73;;;5.30;90.40;;;;;;4879211;29;20186;-90
2022/04/04 12:18:01;;;;;;;8.77;6.77;;;5.40;90.20;;;;;;4878867;29;20294;-90
2022/04/04 12:20:36;;;;;;;4.67;4.27;;;5.40;90.30;;;;;;4878607;29;20179;-90
2022/04/04 12:25:47;;;;;;;6.10;5.53;;;5.50;90.30;;;;;;4880551;29;20215;-90
2022/04/04 12:28:47;;;;;;;5.53;5.03;;;5.50;90.10;;;;;;4879889;29;20199;-91
2022/04/04 12:31:26;;;;;;;6.17;5.57;;;5.60;90.40;;;;;;4877570;29;20187;-91
2022/04/04 12:34:02;;;;;;;3.93;3.63;;;5.70;90.40;;;;;;4880036;29;20745;-90
2022/04/04 12:36:32;;;;;;;4.60;4.13;;;5.70;90.20;;;;;;4879680;29;20669;-90
2022/04/04 12:38:59;;;;;;;5.53;4.73;;;5.70;90.10;;;;;;4879626;29;20187;-91
2022/04/04 12:41:25;;;;;;;4.40;4.00;;;5.70;90.20;;;;;;4878441;29;20662;-91
2022/04/04 12:44:02;;;;;;;4.17;3.73;;;5.80;90.40;;;;;;4879782;29;20194;-91
2022/04/04 12:46:29;;;;;;;4.70;4.23;;;5.80;90.40;;;;;;4879940;29;20558;-91
2022/04/04 12:49:11;;;;;;;4.33;3.90;;;5.80;90.40;;;;;;4878732;29;20179;-90
2022/04/04 12:51:38;;;;;;;6.63;4.63;;;5.90;90.60;;;;;;4879253;29;20175;-90
2022/04/04 12:54:03;;;;;;;4.77;4.37;;;5.90;90.50;;;;;;4878236;29;20187;-91
2022/04/04 12:56:32;;;;;;;4.73;4.33;;;5.90;90.60;;;;;;4878532;29;20212;-91
2022/04/04 12:59:08;;;;;;;5.17;4.67;;;6.00;90.70;;;;;;4878345;29;20253;-90
2022/04/04 13:01:35;;;;;;;4.90;4.50;;;6.00;90.90;;;;;;4878368;29;20616;-90
2022/04/04 13:04:03;;;;;;;4.57;3.93;;;6.00;91.00;;;;;;4878274;29;20199;-91
2022/04/04 13:06:33;;;;;;;5.13;4.60;;;6.00;90.90;;;;;;4879340;29;20679;-90
2022/04/04 13:09:02;;;;;;;4.33;4.03;;;6.00;91.00;;;;;;4878178;29;20176;-91
2022/04/04 13:11:30;;;;;;;4.17;3.30;;;6.00;91.10;;;;;;4878583;29;20186;-91
2022/04/04 13:14:04;;;;;;;2.97;2.77;;;6.10;91.10;;;;;;4878195;29;20182;-91
2022/04/04 13:16:38;;;;;;;4.20;3.73;;;6.10;91.20;;;;;;4878190;29;20199;-91
2022/04/04 13:19:07;;;;;;;5.03;4.07;;;6.20;91.20;;;;;;4878302;29;20181;-91
2022/04/04 13:21:36;;;;;;;4.27;3.97;;;6.20;91.10;;;;;;4878616;29;20183;-91
2022/04/04 13:24:07;;;;;;;4.10;3.00;;;6.20;91.00;;;;;;4878176;29;20685;-90
2022/04/04 13:26:33;;;;;;;4.23;3.67;;;6.20;91.10;;;;;;4879456;29;20283;-90
2022/04/04 13:28:59;;;;;;;3.17;2.90;;;6.30;91.30;;;;;;4878164;29;20178;-91
2022/04/04 13:31:26;;;;;;;3.33;3.03;;;6.30;91.40;;;;;;4881427;29;20681;-91